Latest Weather Observations for Townsville

IDQ60801

Issued at 11:52 am EST Monday 30 November 2020 (issued every 10 minutes, with the page automatically refreshed every 10 minutes)

About weather observations | Map of weather stations | Latest weather observations for QLD | Other Formats
Station Details ID: 032040 Name: TOWNSVILLE AERO Lat: -19.25 Lon: 146.77 Height: 4.34 m
Data from the previous 72 hours. | See also: Recent months at Townsville
Date/Time
EST
Temp
°C
App
Temp
°C
Dew
Point
°C
Rel
Hum
%
Delta-T
°C
Wind Press
QNH
hPa
Press
MSL
hPa
Rain since
9am
mm
Dir  Spd
km/h
Gust
km/h
Spd
kts
Gust
kts
30/11:30am 30.7 29.0 18.1 47 8.1 NE 24 32 13 17 1012.2 1012.1 0.0
30/11:00am 30.4 28.4 17.5 46 8.2 ENE 24 32 13 17 1012.6 1012.5 0.0
30/10:30am 29.5 27.5 17.3 47 7.7 ENE 24 32 13 17 1012.9 1012.8 0.0
30/10:00am 29.0 27.8 18.4 52 6.8 NE 22 30 12 16 1012.9 1012.8 0.0
30/09:30am 29.3 28.9 19.3 55 6.5 NE 20 28 11 15 1012.8 1012.7 0.0
30/09:00am 29.3 29.0 19.6 56 6.3 NE 20 28 11 15 1012.8 1012.7 0.0
30/08:30am 28.9 29.3 19.8 58 5.9 ENE 17 26 9 14 1012.8 1012.7 0.0
30/08:00am 28.5 29.4 20.0 60 5.6 E 15 20 8 11 1012.7 1012.6 0.0
30/07:30am 27.4 28.4 19.5 62 5.1 ENE 13 22 7 12 1012.4 1012.3 0.0
30/07:00am 27.6 28.9 20.2 64 4.8 E 13 20 7 11 1012.3 1012.2 0.0
30/06:30am 26.7 28.0 20.1 67 4.3 E 13 15 7 8 1012.1 1012.0 0.0
30/06:00am 26.1 27.0 20.0 69 4.0 E 15 19 8 10 1011.7 1011.6 0.0
30/05:30am 25.5 26.4 20.1 72 3.5 E 15 19 8 10 1011.1 1011.0 0.0
30/05:00am 25.7 26.7 20.3 72 3.5 ENE 15 19 8 10 1010.6 1010.5 0.0
30/04:30am 26.0 26.8 20.6 72 3.5 ENE 17 20 9 11 1010.4 1010.3 0.0
30/04:00am 26.1 27.2 20.4 71 3.7 NE 15 19 8 10 1010.5 1010.4 0.0
30/03:30am 25.7 26.8 20.5 73 3.4 ENE 15 20 8 11 1010.3 1010.2 0.0
30/03:00am 25.8 26.5 20.4 72 3.5 ENE 17 24 9 13 1010.1 1010.0 0.0
30/02:30am 26.0 27.4 21.0 74 3.3 ENE 15 20 8 11 1010.1 1010.0 0.0
30/02:00am 25.6 26.9 20.8 75 3.2 NE 15 19 8 10 1010.3 1010.2 0.0
30/01:30am 25.9 26.9 21.1 75 3.2 NE 17 20 9 11 1010.7 1010.6 0.0
30/01:00am 25.9 26.9 21.1 75 3.2 ENE 17 26 9 14 1011.1 1011.0 0.0
30/12:30am 26.2 27.7 21.2 74 3.3 ENE 15 20 8 11 1011.5 1011.4 0.0
30/12:00am 26.1 27.1 21.1 74 3.3 NE 17 20 9 11 1011.8 1011.7 0.0
 
Date/Time
EST
Temp
°C
App
Temp
°C
Dew
Point
°C
Rel
Hum
%
Delta-T
°C
Wind Press
QNH
hPa
Press
MSL
hPa
Rain since
9am
mm
Dir  Spd
km/h
Gust
km/h
Spd
kts
Gust
kts
29/11:30pm 26.1 27.0 20.9 73 3.4 NE 17 22 9 12 1011.9 1011.8 0.0
29/11:00pm 26.0 26.7 21.2 75 3.2 NE 19 24 10 13 1012.2 1012.1 0.0
29/10:30pm 26.0 27.1 21.2 75 3.2 ENE 17 20 9 11 1012.4 1012.3 0.0
29/10:00pm 26.0 27.0 21.0 74 3.3 ENE 17 20 9 11 1012.3 1012.2 0.0
29/09:30pm 26.1 27.5 21.1 74 3.3 ENE 15 19 8 10 1011.9 1011.8 0.0
29/09:00pm 26.1 27.0 20.9 73 3.4 ENE 17 22 9 12 1011.6 1011.5 0.0
29/08:30pm 26.1 27.3 20.7 72 3.5 ENE 15 19 8 10 1011.3 1011.2 0.0
29/08:00pm 26.0 26.9 20.8 73 3.4 ENE 17 24 9 13 1011.3 1011.2 0.0
29/07:30pm 26.1 26.4 20.4 71 3.7 NE 19 24 10 13 1010.9 1010.8 0.0
29/07:00pm 26.1 26.4 20.4 71 3.7 NE 19 22 10 12 1010.6 1010.5 0.0
29/06:30pm 26.5 26.6 20.3 68 4.1 NE 20 24 11 13 1010.5 1010.4 0.0
29/06:00pm 26.9 27.0 20.3 67 4.3 NE 20 26 11 14 1010.2 1010.1 0.0
29/05:30pm 27.6 27.0 19.7 62 5.1 NE 22 30 12 16 1009.8 1009.7 0.0
29/05:00pm 28.2 27.0 20.0 61 5.4 ENE 26 32 14 17 1009.6 1009.5 0.0
29/04:30pm 28.5 26.9 20.0 60 5.6 NE 28 35 15 19 1009.4 1009.3 0.0
29/04:00pm 29.2 27.0 20.4 59 5.8 NE 32 37 17 20 1009.4 1009.3 0.0
29/03:30pm 28.8 26.8 20.0 59 5.8 ENE 30 35 16 19 1009.4 1009.3 0.0
29/03:00pm 29.3 27.4 20.2 58 6.0 NE 30 35 16 19 1009.6 1009.5 0.0
29/02:30pm 30.0 27.9 19.7 54 6.7 ENE 30 37 16 20 1010.0 1009.9 0.0
29/02:00pm 30.9 28.9 20.8 55 6.7 ENE 32 37 17 20 1010.4 1010.3 0.0
29/01:30pm 29.8 27.0 19.5 54 6.7 ENE 33 41 18 22 1010.6 1010.5 0.0
29/01:00pm 29.9 27.3 19.6 54 6.7 ENE 32 37 17 20 1010.9 1010.8 0.0
29/12:30pm 31.0 28.2 20.3 53 7.1 ENE 35 41 19 22 1011.4 1011.3 0.0
29/12:00pm 30.5 27.6 20.1 53 6.9 ENE 35 41 19 22 1011.8 1011.7 0.0
29/11:30am 29.8 26.9 20.1 56 6.4 ENE 35 41 19 22 1012.1 1012.0 0.0
29/11:00am 31.1 29.3 21.6 57 6.4 ENE 33 39 18 21 1012.4 1012.3 0.0
29/10:30am 30.2 28.3 21.0 58 6.1 ENE 32 39 17 21 1012.7 1012.6 0.0
29/10:00am 30.3 29.5 20.8 56 6.3 ENE 26 35 14 19 1012.8 1012.7 0.0
29/09:30am 29.4 28.2 20.0 57 6.2 ENE 26 35 14 19 1012.9 1012.8 0.0
29/09:00am 29.3 28.4 20.7 59 5.7 E 26 37 14 20 1012.9 1012.8 0.0
29/08:30am 28.9 28.3 20.6 61 5.5 E 24 35 13 19 1012.8 1012.7 0.0
29/08:00am 28.2 28.0 20.5 63 5.1 ESE 22 30 12 16 1012.7 1012.6 0.0
29/07:30am 27.3 27.4 20.4 66 4.5 ESE 20 30 11 16 1012.6 1012.5 0.0
29/07:00am 26.6 27.6 20.2 68 4.2 SE 15 19 8 10 1012.4 1012.3 0.0
29/06:30am 25.3 27.7 20.1 73 3.4 SE 7 9 4 5 1012.2 1012.1 0.0
29/06:00am 24.1 26.2 20.2 79 2.5 S 9 11 5 6 1011.9 1011.8 0.0
29/05:30am 22.8 24.6 19.6 82 2.0 SSE 9 11 5 6 1011.6 1011.5 0.0
29/05:00am 22.9 24.7 19.5 81 2.2 S 9 11 5 6 1011.3 1011.2 0.0
29/04:30am 23.2 24.5 19.4 79 2.4 SSE 11 13 6 7 1011.1 1011.0 0.0
29/04:00am 24.0 25.0 19.5 76 2.9 SE 13 19 7 10 1010.9 1010.8 0.0
29/03:30am 24.4 25.1 19.7 75 3.0 ESE 15 19 8 10 1010.9 1010.8 0.0
29/03:00am 24.5 24.8 19.6 74 3.2 ESE 17 22 9 12 1011.1 1011.0 0.0
29/02:30am 24.6 24.9 19.7 74 3.2 ESE 17 22 9 12 1011.1 1011.0 0.0
29/02:00am 24.5 25.4 20.0 76 2.9 ESE 15 19 8 10 1011.3 1011.2 0.0
29/01:30am 24.7 25.2 20.0 75 3.0 SE 17 20 9 11 1011.7 1011.6 0.0
29/01:00am 25.2 25.5 20.5 75 3.1 SE 19 24 10 13 1011.9 1011.8 0.0
29/12:30am 25.4 26.7 20.9 76 3.0 SE 15 20 8 11 1012.1 1012.0 0.0
29/12:00am 25.7 27.7 20.7 74 3.3 ESE 11 15 6 8 1012.4 1012.3 0.0
 
Date/Time
EST
Temp
°C
App
Temp
°C
Dew
Point
°C
Rel
Hum
%
Delta-T
°C
Wind Press
QNH
hPa
Press
MSL
hPa
Rain since
9am
mm
Dir  Spd
km/h
Gust
km/h
Spd
kts
Gust
kts
28/11:30pm 25.7 26.5 20.7 74 3.3 ESE 17 22 9 12 1012.4 1012.3 0.0
28/11:00pm 25.9 25.9 20.9 74 3.3 E 22 30 12 16 1012.6 1012.5 0.0
28/10:30pm 25.9 25.8 20.7 73 3.4 E 22 32 12 17 1012.6 1012.5 0.0
28/10:00pm 26.0 26.6 21.0 74 3.3 E 19 26 10 14 1012.5 1012.4 0.0
28/09:30pm 26.1 26.2 21.1 74 3.3 E 22 32 12 17 1012.3 1012.2 0.0
28/09:00pm 26.2 25.5 21.0 73 3.4 E 26 33 14 18 1012.2 1012.1 0.0
28/08:30pm 26.3 26.0 21.1 73 3.4 E 24 33 13 18 1012.1 1012.0 0.0
28/08:00pm 26.3 26.1 20.6 71 3.7 E 22 30 12 16 1012.0 1011.9 0.0
28/07:30pm 26.5 26.0 21.5 74 3.3 ENE 26 32 14 17 1011.9 1011.8 0.0
28/07:00pm 26.6 26.5 21.4 73 3.5 E 24 33 13 18 1011.8 1011.7 0.0
28/06:30pm 26.7 26.3 21.7 74 3.3 ENE 26 33 14 18 1011.6 1011.5 0.0
28/06:00pm 27.2 26.8 21.7 72 3.7 ENE 26 32 14 17 1011.4 1011.3 0.0
28/05:30pm 27.1 26.7 21.6 72 3.7 ENE 26 33 14 18 1011.2 1011.1 0.0
28/05:00pm 27.8 27.1 21.8 70 4.0 ENE 28 35 15 19 1011.1 1011.0 0.0
28/04:30pm 28.2 27.5 21.0 65 4.8 NE 26 33 14 18 1010.9 1010.8 0.0
28/04:00pm 27.6 29.0 21.9 71 3.8 NE 17 24 9 13 1011.1 1011.0 0.0
28/03:30pm 27.3 28.6 21.6 71 3.8 NNE 17 24 9 13 1011.2 1011.1 0.0
28/03:00pm 27.0 27.6 21.1 70 3.9 NE 19 26 10 14 1011.5 1011.4 0.0
28/02:30pm 27.2 26.7 21.5 71 3.8 NE 26 33 14 18 1011.7 1011.6 0.0
28/02:00pm 29.6 28.9 19.6 55 6.5 E 22 32 12 17 1011.7 1011.6 0.0
28/01:30pm 29.2 27.7 20.9 61 5.5 E 30 39 16 21 1011.9 1011.8 0.0
28/01:00pm 29.8 27.9 20.1 56 6.4 ENE 30 37 16 20 1012.3 1012.2 0.0
28/12:30pm 30.6 30.1 19.9 52 7.0 ENE 22 30 12 16 1012.6 1012.5 0.0
28/12:00pm 29.1 27.9 20.8 61 5.5 ENE 28 35 15 19 1013.0 1012.9 0.0
28/11:30am 29.5 27.9 20.1 57 6.2 E 28 37 15 20 1013.0 1012.9 0.0
28/11:00am 29.1 27.7 21.1 62 5.3 E 30 37 16 20 1013.2 1013.1 0.0
28/10:30am 29.7 27.3 20.0 56 6.4 ENE 32 41 17 22 1013.4 1013.3 0.0
28/10:00am 31.1 30.1 21.3 56 6.6 ESE 28 37 15 20 1013.7 1013.6 0.0
28/09:30am 27.9 27.3 21.2 67 4.5 ESE 26 33 14 18 1013.9 1013.8 0.0
28/09:00am 30.0 29.8 20.5 56 6.3 ESE 22 32 12 17 1013.8 1013.7 0.0
28/08:30am 28.5 28.3 21.3 65 4.8 ESE 24 32 13 17 1013.6 1013.5 0.0
28/08:00am 28.4 27.0 20.4 62 5.3 ESE 28 41 15 22 1013.3 1013.2 0.0
28/07:30am 27.2 26.6 20.5 67 4.4 ESE 24 33 13 18 1013.1 1013.0 0.0
28/07:00am 26.6 25.6 20.4 69 4.1 ESE 26 33 14 18 1012.6 1012.5 0.0
28/06:30am 25.9 27.4 20.5 72 3.5 SE 13 17 7 9 1012.2 1012.1 0.0
28/06:00am 25.1 26.5 20.4 75 3.1 SSE 13 17 7 9 1012.0 1011.9 0.0
28/05:30am 24.3 25.9 20.0 77 2.8 SE 11 15 6 8 1011.7 1011.6 0.0
28/05:00am 24.6 25.9 20.1 76 2.9 SE 13 17 7 9 1011.4 1011.3 0.0
28/04:30am 24.9 25.7 19.9 74 3.2 SE 15 19 8 10 1011.3 1011.2 0.0
28/04:00am 24.9 25.2 19.7 73 3.4 ESE 17 20 9 11 1011.3 1011.2 0.0
28/03:30am 25.0 25.9 20.0 74 3.2 SE 15 19 8 10 1011.3 1011.2 0.0
28/03:00am 25.2 25.7 20.0 73 3.4 ESE 17 20 9 11 1011.3 1011.2 0.0
28/02:30am 24.9 26.0 19.7 73 3.4 SE 13 17 7 9 1011.3 1011.2 0.0
28/02:00am 24.9 25.6 19.7 73 3.4 SE 15 20 8 11 1011.4 1011.3 0.0
28/01:30am 25.3 26.5 19.9 72 3.5 SE 13 17 7 9 1011.8 1011.7 0.0
28/01:00am 25.6 26.6 20.2 72 3.5 SE 15 20 8 11 1012.1 1012.0 0.0
28/12:30am 25.7 27.1 20.3 72 3.5 SSE 13 17 7 9 1012.6 1012.5 0.0
28/12:00am 26.3 26.6 19.7 67 4.3 ESE 17 26 9 14 1012.9 1012.8 0.0
 
Date/Time
EST
Temp
°C
App
Temp
°C
Dew
Point
°C
Rel
Hum
%
Delta-T
°C
Wind Press
QNH
hPa
Press
MSL
hPa
Rain since
9am
mm
Dir  Spd
km/h
Gust
km/h
Spd
kts
Gust
kts
27/11:30pm 26.6 26.1 20.0 67 4.3 ESE 22 30 12 16 1013.3 1013.2 0.0
27/11:00pm 26.6 26.6 20.2 68 4.2 E 20 32 11 17 1013.5 1013.4 0.0
27/10:30pm 26.8 26.3 19.9 66 4.5 ESE 22 32 12 17 1013.4 1013.3 0.0
27/10:00pm 26.9 27.7 20.7 69 4.1 E 17 26 9 14 1013.2 1013.1 0.0
27/09:30pm 27.1 27.5 20.9 69 4.1 E 20 28 11 15 1013.0 1012.9 0.0
27/09:00pm 27.0 27.4 21.7 73 3.5 ENE 22 28 12 15 1012.8 1012.7 0.0
27/08:30pm 27.2 27.1 21.5 71 3.8 ENE 24 32 13 17 1012.7 1012.6 0.0
27/08:00pm 27.2 27.1 21.5 71 3.8 E 24 30 13 16 1012.5 1012.4 0.0
27/07:30pm 27.2 27.9 21.5 71 3.8 ENE 20 28 11 15 1012.2 1012.1 0.0
27/07:00pm 27.2 27.6 21.0 69 4.1 E 20 26 11 14 1011.8 1011.7 0.0
27/06:30pm 27.3 27.5 22.0 73 3.6 ENE 24 30 13 16 1011.5 1011.4 0.0
27/06:00pm 27.9 27.8 21.4 67 4.3 ENE 24 30 13 16 1011.2 1011.1 0.0
27/05:30pm 28.3 28.4 21.8 68 4.4 ENE 24 32 13 17 1010.7 1010.6 0.0
27/05:00pm 28.9 28.6 22.6 69 4.3 ENE 28 33 15 18 1010.4 1010.3 0.0
27/04:30pm 29.4 29.6 22.1 65 4.9 ENE 24 33 13 18 1010.4 1010.3 0.0
27/04:00pm 30.0 29.4 21.9 62 5.5 ENE 28 33 15 18 1010.4 1010.3 0.0
27/03:30pm 29.6 29.8 22.1 64 5.1 NE 24 30 13 16 1010.7 1010.6 0.0
27/03:00pm 30.0 28.3 21.4 60 5.8 NE 32 37 17 20 1010.9 1010.8 0.0
27/02:30pm 30.7 29.6 21.8 59 6.0 ENE 30 35 16 19 1011.1 1011.0 0.0
27/02:00pm 30.6 28.9 21.4 58 6.2 NE 32 39 17 21 1011.5 1011.4 0.0
27/01:30pm 30.6 29.1 21.7 59 6.0 ENE 32 37 17 20 1011.6 1011.5 0.0
27/01:00pm 30.7 28.7 21.2 57 6.4 ENE 33 43 18 23 1012.0 1011.9 0.0
27/12:30pm 31.4 29.4 21.8 56 6.5 NE 35 41 19 22 1012.1 1012.0 0.0
27/12:00pm 30.8 29.4 21.9 59 6.0 ENE 32 39 17 21 1012.3 1012.2 0.0

Other formats

Comma delimited format used in spreadsheet applications
http://www.bom.gov.au/fwo/IDQ60801/IDQ60801.94294.axf

JavaScript Object Notation format (JSON) in row-major order
http://www.bom.gov.au/fwo/IDQ60801/IDQ60801.94294.json

Data quality

Most of these data are generated automatically and are frequently updated. Quality checks on data are not normally performed. It is possible for incorrect values to appear. Refer to information at About Latest Weather Observations and please check the disclaimer before using these data.